createdAt,value
2023-02-22T06:02:57.590Z,7.46
2023-02-22T06:05:28.058Z,7.26
2023-02-22T06:08:05.586Z,7.50
2023-02-22T06:10:36.281Z,7.54
2023-02-22T06:13:14.635Z,7.54
2023-02-22T06:15:51.569Z,7.51
2023-02-22T06:18:26.805Z,7.59
2023-02-22T06:21:03.552Z,7.55
2023-02-22T06:23:33.792Z,7.54
2023-02-22T06:26:10.605Z,7.45
2023-02-22T06:28:47.615Z,7.53
2023-02-22T06:31:18.461Z,7.52
2023-02-22T06:33:57.608Z,7.48
2023-02-22T06:36:27.650Z,7.50
2023-02-22T06:39:08.546Z,7.49
2023-02-22T06:41:40.506Z,7.50
2023-02-22T06:44:17.636Z,7.39
2023-02-22T06:46:59.665Z,7.43
2023-02-22T06:49:32.194Z,7.45
2023-02-22T06:52:08.641Z,7.57
2023-02-22T06:54:39.436Z,7.50
2023-02-22T06:57:16.582Z,7.55
2023-02-22T06:59:47.145Z,7.55
2023-02-22T07:02:24.601Z,7.56
2023-02-22T07:04:57.458Z,7.46
2023-02-22T07:07:33.652Z,7.59
2023-02-22T07:10:04.968Z,7.53
2023-02-22T07:12:41.935Z,7.52
2023-02-22T07:15:13.745Z,7.56
2023-02-22T07:17:50.629Z,7.55
2023-02-22T07:20:25.103Z,7.55
2023-02-22T07:23:02.812Z,7.61
2023-02-22T07:25:33.142Z,7.59
2023-02-22T07:28:10.664Z,7.56
2023-02-22T07:30:41.390Z,7.65
2023-02-22T07:33:21.711Z,7.70
2023-02-22T07:35:54.610Z,7.71
2023-02-22T07:38:30.688Z,7.75
2023-02-22T07:41:01.792Z,7.73
2023-02-22T07:43:39.757Z,7.84
2023-02-22T07:46:10.216Z,7.75
2023-02-22T07:48:46.723Z,7.72
2023-02-22T07:51:21.275Z,7.79
2023-02-22T07:53:58.679Z,7.78
2023-02-22T07:56:28.964Z,7.71
2023-02-22T07:59:06.712Z,7.74
2023-02-22T08:01:43.754Z,7.78
2023-02-22T08:04:13.860Z,7.81
2023-02-22T08:06:52.681Z,7.86
2023-02-22T08:09:23.736Z,7.79
2023-02-22T08:12:00.713Z,7.91
2023-02-22T08:14:30.795Z,7.86
2023-02-22T08:17:08.805Z,7.93
2023-02-22T08:19:39.280Z,7.86
2023-02-22T08:22:20.182Z,7.92
2023-02-22T08:24:54.310Z,7.95
2023-02-22T08:27:34.700Z,7.93
2023-02-22T08:30:04.917Z,8.08
2023-02-22T08:32:41.868Z,8.04
2023-02-22T08:35:13.768Z,8.15
2023-02-22T08:37:56.763Z,8.09
2023-02-22T08:40:37.735Z,8.12
2023-02-22T08:43:07.789Z,8.13
2023-02-22T08:45:44.759Z,8.14
2023-02-22T08:48:15.403Z,8.17
2023-02-22T08:50:52.867Z,8.23
2023-02-22T08:53:25.611Z,8.24
2023-02-22T08:56:02.904Z,8.33
2023-02-22T08:58:39.770Z,8.29
2023-02-22T09:01:09.860Z,8.43
2023-02-22T09:03:46.834Z,8.55
2023-02-22T09:06:16.980Z,8.56
2023-02-22T09:08:55.864Z,8.58
2023-02-22T09:11:26.146Z,8.56
2023-02-22T09:14:02.818Z,8.57
2023-02-22T09:16:33.814Z,8.70
2023-02-22T09:19:10.788Z,8.72
2023-02-22T09:21:47.775Z,8.93
2023-02-22T09:24:20.536Z,8.82
2023-02-22T09:27:00.794Z,8.97
2023-02-22T09:29:33.440Z,8.95
2023-02-22T09:32:10.885Z,9.20
2023-02-22T09:34:45.996Z,9.23
2023-02-22T09:37:23.882Z,9.32
2023-02-22T09:39:59.617Z,9.32
2023-02-22T09:42:43.829Z,9.45
2023-02-22T09:45:23.628Z,9.51
2023-02-22T09:48:20.795Z,9.59
2023-02-22T09:51:02.908Z,9.79
2023-02-22T09:53:42.020Z,9.83
2023-02-22T09:56:24.823Z,9.94
2023-02-22T09:58:58.397Z,10.02
2023-02-22T10:01:42.113Z,9.99
2023-02-22T10:04:26.813Z,10.12
2023-02-22T10:07:08.863Z,10.08
2023-02-22T10:09:50.890Z,10.09
2023-02-22T10:12:32.953Z,10.14
2023-02-22T10:15:35.940Z,10.05
2023-02-22T10:18:56.874Z,10.18
2023-02-22T10:21:58.602Z,10.21
2023-02-22T10:24:52.892Z,10.23
2023-02-22T10:27:32.590Z,10.31
2023-02-22T10:30:24.626Z,10.36
2023-02-22T10:33:02.620Z,10.39
2023-02-22T10:35:46.937Z,10.48
2023-02-22T10:38:23.605Z,10.52
2023-02-22T10:41:05.914Z,10.55
2023-02-22T10:43:41.485Z,10.60
2023-02-22T10:46:22.899Z,10.68
2023-02-22T10:49:00.285Z,10.80
2023-02-22T10:51:36.958Z,10.81
2023-02-22T10:54:27.387Z,10.70
2023-02-22T10:57:06.928Z,10.87
2023-02-22T10:59:43.044Z,10.99
2023-02-22T11:02:30.903Z,11.00
2023-02-22T11:05:04.170Z,10.97
2023-02-22T11:07:43.960Z,10.99
2023-02-22T11:10:14.072Z,11.01
2023-02-22T11:12:54.954Z,11.08
2023-02-22T11:15:32.470Z,11.04
2023-02-22T11:18:08.986Z,11.14
2023-02-22T11:20:42.112Z,11.21
2023-02-22T11:23:19.935Z,11.33
2023-02-22T11:26:08.323Z,11.32
2023-02-22T11:28:56.043Z,11.31
2023-02-22T11:31:32.404Z,11.39
2023-02-22T11:34:12.931Z,11.45
2023-02-22T11:36:46.877Z,11.36
2023-02-22T11:39:35.018Z,11.39
2023-02-22T11:42:26.020Z,11.38
2023-02-22T11:45:19.937Z,11.45
2023-02-22T11:47:56.814Z,11.57
2023-02-22T11:50:41.083Z,11.61
2023-02-22T11:53:34.659Z,11.65
2023-02-22T11:56:37.200Z,11.72
2023-02-22T11:59:24.009Z,11.84
2023-02-22T12:02:07.013Z,11.74
2023-02-22T12:04:59.949Z,11.75
2023-02-22T12:07:55.120Z,11.86
2023-02-22T12:10:41.914Z,11.86
2023-02-22T12:13:41.093Z,12.03
2023-02-22T12:16:26.821Z,12.04
2023-02-22T12:19:21.043Z,12.05
2023-02-22T12:22:02.773Z,12.05
2023-02-22T12:24:47.140Z,12.06
2023-02-22T12:27:27.475Z,12.15
2023-02-22T12:30:11.024Z,12.16
2023-02-22T12:32:53.272Z,12.21
2023-02-22T12:35:27.354Z,12.21
2023-02-22T12:38:15.061Z,12.35
2023-02-22T12:41:04.144Z,12.36
2023-02-22T12:43:43.812Z,12.42
2023-02-22T12:46:25.112Z,12.51
2023-02-22T12:49:08.216Z,12.62
2023-02-22T12:51:53.165Z,12.63
2023-02-22T12:54:35.050Z,12.58
2023-02-22T12:57:22.281Z,12.58
2023-02-22T12:59:59.290Z,12.53
2023-02-22T13:02:42.175Z,12.60
2023-02-22T13:05:18.368Z,12.65
2023-02-22T13:08:08.087Z,12.65
2023-02-22T13:11:09.675Z,12.68
2023-02-22T13:13:59.255Z,12.67
2023-02-22T13:16:44.278Z,12.67
2023-02-22T13:19:46.071Z,12.68
2023-02-22T13:22:24.552Z,12.69
2023-02-22T13:25:16.224Z,12.71
2023-02-22T13:27:55.273Z,12.69
2023-02-22T13:30:39.185Z,12.68
2023-02-22T13:33:32.198Z,12.56
2023-02-22T13:36:34.173Z,12.58
2023-02-22T13:39:34.183Z,12.58
2023-02-22T13:42:53.259Z,12.67
2023-02-22T13:45:56.839Z,12.56
2023-02-22T13:49:14.112Z,12.57
2023-02-22T13:51:58.109Z,12.61
2023-02-22T13:54:41.131Z,12.64
2023-02-22T13:57:36.187Z,12.59
